sensor_id;sensor_type;location;lat;lon;timestamp;temperature;humidity
22098;DHT22;11215;51.938;8.464;2022-10-28T00:02:20;18.20;69.80
22098;DHT22;11215;51.938;8.464;2022-10-28T00:04:45;18.20;70.60
22098;DHT22;11215;51.938;8.464;2022-10-28T00:07:11;18.20;69.90
22098;DHT22;11215;51.938;8.464;2022-10-28T00:09:37;18.20;70.00
22098;DHT22;11215;51.938;8.464;2022-10-28T00:12:02;18.10;70.00
22098;DHT22;11215;51.938;8.464;2022-10-28T00:14:28;18.10;70.00
22098;DHT22;11215;51.938;8.464;2022-10-28T00:16:54;18.10;70.10
22098;DHT22;11215;51.938;8.464;2022-10-28T00:19:19;18.10;70.20
22098;DHT22;11215;51.938;8.464;2022-10-28T00:21:45;18.00;70.20
22098;DHT22;11215;51.938;8.464;2022-10-28T00:24:12;18.00;70.50
22098;DHT22;11215;51.938;8.464;2022-10-28T00:26:39;18.00;71.50
22098;DHT22;11215;51.938;8.464;2022-10-28T00:29:12;18.00;70.80
22098;DHT22;11215;51.938;8.464;2022-10-28T00:31:38;18.00;71.10
22098;DHT22;11215;51.938;8.464;2022-10-28T00:34:09;18.00;71.00
22098;DHT22;11215;51.938;8.464;2022-10-28T00:36:37;18.00;71.20
22098;DHT22;11215;51.938;8.464;2022-10-28T00:39:12;18.00;71.20
22098;DHT22;11215;51.938;8.464;2022-10-28T00:41:39;18.00;71.30
22098;DHT22;11215;51.938;8.464;2022-10-28T00:50:16;18.10;71.70
22098;DHT22;11215;51.938;8.464;2022-10-28T00:52:46;18.10;71.40
22098;DHT22;11215;51.938;8.464;2022-10-28T00:55:14;18.10;71.30
22098;DHT22;11215;51.938;8.464;2022-10-28T00:57:40;18.10;71.20
22098;DHT22;11215;51.938;8.464;2022-10-28T01:00:09;18.20;71.30
22098;DHT22;11215;51.938;8.464;2022-10-28T01:02:48;18.20;71.30
22098;DHT22;11215;51.938;8.464;2022-10-28T01:05:18;18.20;71.30
22098;DHT22;11215;51.938;8.464;2022-10-28T01:07:44;18.20;71.20
22098;DHT22;11215;51.938;8.464;2022-10-28T01:10:12;18.20;71.20
22098;DHT22;11215;51.938;8.464;2022-10-28T01:46:28;18.20;71.80
22098;DHT22;11215;51.938;8.464;2022-10-28T01:49:08;18.20;71.80
22098;DHT22;11215;51.938;8.464;2022-10-28T01:51:39;18.20;71.70
22098;DHT22;11215;51.938;8.464;2022-10-28T01:54:06;18.20;71.70
22098;DHT22;11215;51.938;8.464;2022-10-28T01:56:36;18.20;71.70
22098;DHT22;11215;51.938;8.464;2022-10-28T01:59:07;18.20;71.90
22098;DHT22;11215;51.938;8.464;2022-10-28T02:01:34;18.20;71.90
22098;DHT22;11215;51.938;8.464;2022-10-28T02:04:00;18.20;71.80
22098;DHT22;11215;51.938;8.464;2022-10-28T02:06:28;18.20;71.80
22098;DHT22;11215;51.938;8.464;2022-10-28T02:22:54;18.20;71.80
22098;DHT22;11215;51.938;8.464;2022-10-28T02:25:32;18.30;71.80
22098;DHT22;11215;51.938;8.464;2022-10-28T02:28:04;18.30;71.80
22098;DHT22;11215;51.938;8.464;2022-10-28T02:30:47;18.30;71.70
22098;DHT22;11215;51.938;8.464;2022-10-28T02:33:23;18.30;71.60
22098;DHT22;11215;51.938;8.464;2022-10-28T02:38:52;18.40;71.40
22098;DHT22;11215;51.938;8.464;2022-10-28T02:41:43;18.50;71.40
22098;DHT22;11215;51.938;8.464;2022-10-28T02:44:14;18.50;71.10
22098;DHT22;11215;51.938;8.464;2022-10-28T02:46:44;18.50;71.00
22098;DHT22;11215;51.938;8.464;2022-10-28T02:49:12;18.60;71.10
22098;DHT22;11215;51.938;8.464;2022-10-28T02:51:48;18.60;71.00
22098;DHT22;11215;51.938;8.464;2022-10-28T02:54:20;18.60;70.90
22098;DHT22;11215;51.938;8.464;2022-10-28T02:57:00;18.60;70.80
22098;DHT22;11215;51.938;8.464;2022-10-28T02:59:28;18.70;70.70
22098;DHT22;11215;51.938;8.464;2022-10-28T03:01:54;18.70;70.70
22098;DHT22;11215;51.938;8.464;2022-10-28T03:04:20;18.70;70.60
22098;DHT22;11215;51.938;8.464;2022-10-28T03:06:46;18.70;70.50
22098;DHT22;11215;51.938;8.464;2022-10-28T03:09:11;18.70;70.40
22098;DHT22;11215;51.938;8.464;2022-10-28T03:11:37;18.70;70.30
22098;DHT22;11215;51.938;8.464;2022-10-28T03:14:02;18.70;70.30
22098;DHT22;11215;51.938;8.464;2022-10-28T03:16:28;18.80;70.40
22098;DHT22;11215;51.938;8.464;2022-10-28T03:18:54;18.70;70.20
22098;DHT22;11215;51.938;8.464;2022-10-28T03:21:20;18.80;70.20
22098;DHT22;11215;51.938;8.464;2022-10-28T03:23:45;18.80;70.20
22098;DHT22;11215;51.938;8.464;2022-10-28T03:26:11;18.80;70.20
22098;DHT22;11215;51.938;8.464;2022-10-28T03:28:36;18.80;70.20
22098;DHT22;11215;51.938;8.464;2022-10-28T03:31:02;18.80;70.20
22098;DHT22;11215;51.938;8.464;2022-10-28T03:33:28;18.80;70.10
22098;DHT22;11215;51.938;8.464;2022-10-28T03:35:53;18.70;70.10
22098;DHT22;11215;51.938;8.464;2022-10-28T03:38:19;18.70;70.00
22098;DHT22;11215;51.938;8.464;2022-10-28T03:40:47;18.70;70.00
22098;DHT22;11215;51.938;8.464;2022-10-28T03:43:13;18.70;69.90
22098;DHT22;11215;51.938;8.464;2022-10-28T03:45:39;18.70;69.90
22098;DHT22;11215;51.938;8.464;2022-10-28T03:48:04;18.70;69.80
22098;DHT22;11215;51.938;8.464;2022-10-28T03:50:30;18.70;69.80
22098;DHT22;11215;51.938;8.464;2022-10-28T03:52:56;18.70;69.70
22098;DHT22;11215;51.938;8.464;2022-10-28T03:55:21;18.70;69.50
22098;DHT22;11215;51.938;8.464;2022-10-28T03:57:48;18.70;69.50
22098;DHT22;11215;51.938;8.464;2022-10-28T04:00:14;18.70;69.40
22098;DHT22;11215;51.938;8.464;2022-10-28T04:02:40;18.70;69.40
22098;DHT22;11215;51.938;8.464;2022-10-28T04:05:06;18.70;69.40
22098;DHT22;11215;51.938;8.464;2022-10-28T04:07:31;18.60;69.40
22098;DHT22;11215;51.938;8.464;2022-10-28T04:09:57;18.60;69.40
22098;DHT22;11215;51.938;8.464;2022-10-28T04:12:23;18.60;69.40
22098;DHT22;11215;51.938;8.464;2022-10-28T04:14:48;18.50;69.40
22098;DHT22;11215;51.938;8.464;2022-10-28T04:17:14;18.50;69.40
22098;DHT22;11215;51.938;8.464;2022-10-28T04:19:40;18.50;69.50
22098;DHT22;11215;51.938;8.464;2022-10-28T04:22:05;18.50;69.60
22098;DHT22;11215;51.938;8.464;2022-10-28T04:24:32;18.40;69.60
22098;DHT22;11215;51.938;8.464;2022-10-28T04:26:57;18.40;69.70
22098;DHT22;11215;51.938;8.464;2022-10-28T04:29:23;18.40;69.80
22098;DHT22;11215;51.938;8.464;2022-10-28T04:31:49;18.40;69.90
22098;DHT22;11215;51.938;8.464;2022-10-28T04:34:14;18.40;69.90
22098;DHT22;11215;51.938;8.464;2022-10-28T04:36:40;18.30;69.90
22098;DHT22;11215;51.938;8.464;2022-10-28T04:39:05;18.30;70.00
22098;DHT22;11215;51.938;8.464;2022-10-28T04:41:31;18.40;70.10
22098;DHT22;11215;51.938;8.464;2022-10-28T04:43:56;18.30;70.10
22098;DHT22;11215;51.938;8.464;2022-10-28T04:46:22;18.30;70.20
22098;DHT22;11215;51.938;8.464;2022-10-28T04:48:48;18.30;70.20
22098;DHT22;11215;51.938;8.464;2022-10-28T04:51:13;18.30;70.20
22098;DHT22;11215;51.938;8.464;2022-10-28T04:53:39;18.30;70.20
22098;DHT22;11215;51.938;8.464;2022-10-28T04:56:05;18.30;70.10
22098;DHT22;11215;51.938;8.464;2022-10-28T04:58:31;18.30;70.30
22098;DHT22;11215;51.938;8.464;2022-10-28T05:00:56;18.30;70.30
22098;DHT22;11215;51.938;8.464;2022-10-28T05:03:22;18.30;70.30
22098;DHT22;11215;51.938;8.464;2022-10-28T05:05:48;18.30;70.30
22098;DHT22;11215;51.938;8.464;2022-10-28T05:08:19;18.30;70.30
22098;DHT22;11215;51.938;8.464;2022-10-28T05:10:58;18.30;70.20
22098;DHT22;11215;51.938;8.464;2022-10-28T05:13:23;18.30;70.00
22098;DHT22;11215;51.938;8.464;2022-10-28T05:15:49;18.30;69.90
22098;DHT22;11215;51.938;8.464;2022-10-28T05:18:15;18.20;69.90
22098;DHT22;11215;51.938;8.464;2022-10-28T05:20:41;18.20;69.80
22098;DHT22;11215;51.938;8.464;2022-10-28T05:23:06;18.20;69.90
22098;DHT22;11215;51.938;8.464;2022-10-28T05:25:33;18.20;69.90
22098;DHT22;11215;51.938;8.464;2022-10-28T05:27:59;18.10;69.80
22098;DHT22;11215;51.938;8.464;2022-10-28T05:30:25;18.10;69.80
22098;DHT22;11215;51.938;8.464;2022-10-28T05:32:57;18.00;69.80
22098;DHT22;11215;51.938;8.464;2022-10-28T05:35:22;18.00;69.90
22098;DHT22;11215;51.938;8.464;2022-10-28T05:37:48;18.00;70.80
22098;DHT22;11215;51.938;8.464;2022-10-28T05:40:13;18.00;70.00
22098;DHT22;11215;51.938;8.464;2022-10-28T05:42:40;17.90;70.00
22098;DHT22;11215;51.938;8.464;2022-10-28T05:45:07;17.90;70.10
22098;DHT22;11215;51.938;8.464;2022-10-28T05:47:33;17.90;70.20
22098;DHT22;11215;51.938;8.464;2022-10-28T05:49:59;17.80;70.20
22098;DHT22;11215;51.938;8.464;2022-10-28T05:52:24;17.80;70.30
22098;DHT22;11215;51.938;8.464;2022-10-28T05:54:50;17.80;70.30
22098;DHT22;11215;51.938;8.464;2022-10-28T05:57:15;17.80;70.40
22098;DHT22;11215;51.938;8.464;2022-10-28T05:59:41;17.80;70.40
22098;DHT22;11215;51.938;8.464;2022-10-28T06:02:12;17.80;70.30
22098;DHT22;11215;51.938;8.464;2022-10-28T06:04:39;17.80;70.50
22098;DHT22;11215;51.938;8.464;2022-10-28T06:07:04;17.80;70.40
22098;DHT22;11215;51.938;8.464;2022-10-28T06:09:30;17.80;70.40
22098;DHT22;11215;51.938;8.464;2022-10-28T06:11:56;17.70;70.30
22098;DHT22;11215;51.938;8.464;2022-10-28T06:14:21;17.70;70.40
22098;DHT22;11215;51.938;8.464;2022-10-28T06:16:47;17.70;70.40
22098;DHT22;11215;51.938;8.464;2022-10-28T06:19:12;17.70;70.40
22098;DHT22;11215;51.938;8.464;2022-10-28T06:21:38;17.70;70.50
22098;DHT22;11215;51.938;8.464;2022-10-28T06:24:11;17.70;70.50
22098;DHT22;11215;51.938;8.464;2022-10-28T06:26:39;17.60;70.50
22098;DHT22;11215;51.938;8.464;2022-10-28T06:29:09;17.60;70.40
22098;DHT22;11215;51.938;8.464;2022-10-28T06:31:38;17.60;70.50
22098;DHT22;11215;51.938;8.464;2022-10-28T06:34:04;17.60;70.70
22098;DHT22;11215;51.938;8.464;2022-10-28T06:36:30;17.60;70.70
22098;DHT22;11215;51.938;8.464;2022-10-28T06:42:16;17.60;71.10
22098;DHT22;11215;51.938;8.464;2022-10-28T06:44:41;17.60;70.90
22098;DHT22;11215;51.938;8.464;2022-10-28T06:47:07;17.60;70.90
22098;DHT22;11215;51.938;8.464;2022-10-28T06:49:32;17.60;71.00
22098;DHT22;11215;51.938;8.464;2022-10-28T06:51:58;17.60;71.10
22098;DHT22;11215;51.938;8.464;2022-10-28T06:54:24;17.60;71.30
22098;DHT22;11215;51.938;8.464;2022-10-28T06:56:49;17.60;71.10
22098;DHT22;11215;51.938;8.464;2022-10-28T06:59:15;17.60;71.30
22098;DHT22;11215;51.938;8.464;2022-10-28T07:01:41;17.70;71.40
22098;DHT22;11215;51.938;8.464;2022-10-28T07:04:09;17.70;71.50
22098;DHT22;11215;51.938;8.464;2022-10-28T07:06:35;17.70;71.70
22098;DHT22;11215;51.938;8.464;2022-10-28T07:09:01;17.70;71.60
22098;DHT22;11215;51.938;8.464;2022-10-28T07:11:27;17.80;71.80
22098;DHT22;11215;51.938;8.464;2022-10-28T07:13:53;17.70;71.80
22098;DHT22;11215;51.938;8.464;2022-10-28T07:16:18;17.80;71.90
22098;DHT22;11215;51.938;8.464;2022-10-28T07:18:44;17.80;71.90
22098;DHT22;11215;51.938;8.464;2022-10-28T07:21:09;17.90;72.00
22098;DHT22;11215;51.938;8.464;2022-10-28T07:23:35;17.90;72.00
22098;DHT22;11215;51.938;8.464;2022-10-28T07:26:01;17.90;71.80
22098;DHT22;11215;51.938;8.464;2022-10-28T07:28:34;17.90;71.80
22098;DHT22;11215;51.938;8.464;2022-10-28T07:31:10;18.00;71.80
22098;DHT22;11215;51.938;8.464;2022-10-28T07:33:39;18.00;71.50
22098;DHT22;11215;51.938;8.464;2022-10-28T07:36:05;18.00;71.80
22098;DHT22;11215;51.938;8.464;2022-10-28T07:38:31;18.10;71.90
22098;DHT22;11215;51.938;8.464;2022-10-28T07:40:57;18.10;72.00
22098;DHT22;11215;51.938;8.464;2022-10-28T07:43:23;18.20;72.00
22098;DHT22;11215;51.938;8.464;2022-10-28T07:45:57;18.20;71.90
22098;DHT22;11215;51.938;8.464;2022-10-28T07:48:25;18.30;71.80
22098;DHT22;11215;51.938;8.464;2022-10-28T07:50:51;18.30;71.80
22098;DHT22;11215;51.938;8.464;2022-10-28T07:53:17;18.40;71.80
22098;DHT22;11215;51.938;8.464;2022-10-28T07:55:42;18.40;71.80
22098;DHT22;11215;51.938;8.464;2022-10-28T07:58:08;18.50;71.90
22098;DHT22;11215;51.938;8.464;2022-10-28T08:00:33;18.50;71.80
22098;DHT22;11215;51.938;8.464;2022-10-28T08:03:01;18.60;71.90
22098;DHT22;11215;51.938;8.464;2022-10-28T08:05:27;18.60;71.70
22098;DHT22;11215;51.938;8.464;2022-10-28T08:07:52;18.70;71.70
22098;DHT22;11215;51.938;8.464;2022-10-28T08:10:18;18.70;71.60
22098;DHT22;11215;51.938;8.464;2022-10-28T08:12:43;18.80;71.60
22098;DHT22;11215;51.938;8.464;2022-10-28T08:15:10;18.80;71.50
22098;DHT22;11215;51.938;8.464;2022-10-28T08:17:37;18.90;71.50
22098;DHT22;11215;51.938;8.464;2022-10-28T08:20:03;18.90;71.40
22098;DHT22;11215;51.938;8.464;2022-10-28T08:22:29;19.00;71.50
22098;DHT22;11215;51.938;8.464;2022-10-28T08:24:55;19.10;71.40
22098;DHT22;11215;51.938;8.464;2022-10-28T08:27:20;19.20;71.40
22098;DHT22;11215;51.938;8.464;2022-10-28T08:29:46;19.20;71.30
22098;DHT22;11215;51.938;8.464;2022-10-28T08:32:11;19.30;71.20
22098;DHT22;11215;51.938;8.464;2022-10-28T08:34:37;19.50;71.20
22098;DHT22;11215;51.938;8.464;2022-10-28T08:37:03;19.50;70.90
22098;DHT22;11215;51.938;8.464;2022-10-28T08:39:28;19.60;70.80
22098;DHT22;11215;51.938;8.464;2022-10-28T08:42:01;19.70;70.60
22098;DHT22;11215;51.938;8.464;2022-10-28T08:49:34;19.90;70.20
22098;DHT22;11215;51.938;8.464;2022-10-28T08:52:40;20.00;69.90
22098;DHT22;11215;51.938;8.464;2022-10-28T08:55:17;20.10;69.40
22098;DHT22;11215;51.938;8.464;2022-10-28T08:57:48;20.10;69.50
22098;DHT22;11215;51.938;8.464;2022-10-28T09:00:32;20.20;69.70
22098;DHT22;11215;51.938;8.464;2022-10-28T09:05:38;20.30;68.50
22098;DHT22;11215;51.938;8.464;2022-10-28T09:08:05;20.40;69.00
22098;DHT22;11215;51.938;8.464;2022-10-28T09:10:45;20.40;69.00
22098;DHT22;11215;51.938;8.464;2022-10-28T09:18:19;20.70;68.70
22098;DHT22;11215;51.938;8.464;2022-10-28T09:20:53;20.70;68.70
22098;DHT22;11215;51.938;8.464;2022-10-28T09:23:45;20.70;67.90
22098;DHT22;11215;51.938;8.464;2022-10-28T09:26:30;20.80;67.80
22098;DHT22;11215;51.938;8.464;2022-10-28T09:34:55;21.00;66.90
22098;DHT22;11215;51.938;8.464;2022-10-28T09:37:27;21.10;67.30
22098;DHT22;11215;51.938;8.464;2022-10-28T09:42:43;21.20;67.40
22098;DHT22;11215;51.938;8.464;2022-10-28T09:45:26;21.30;67.30
22098;DHT22;11215;51.938;8.464;2022-10-28T09:47:57;21.30;66.20
22098;DHT22;11215;51.938;8.464;2022-10-28T09:50:30;21.40;67.00
22098;DHT22;11215;51.938;8.464;2022-10-28T09:55:49;21.50;66.70
22098;DHT22;11215;51.938;8.464;2022-10-28T09:58:16;21.50;67.40
22098;DHT22;11215;51.938;8.464;2022-10-28T10:00:42;21.50;67.20
22098;DHT22;11215;51.938;8.464;2022-10-28T10:03:07;21.60;67.30
22098;DHT22;11215;51.938;8.464;2022-10-28T10:05:38;21.60;67.10
22098;DHT22;11215;51.938;8.464;2022-10-28T10:08:05;21.60;66.80
22098;DHT22;11215;51.938;8.464;2022-10-28T10:10:39;21.70;67.10
22098;DHT22;11215;51.938;8.464;2022-10-28T10:13:09;21.70;66.70
22098;DHT22;11215;51.938;8.464;2022-10-28T10:15:44;21.80;67.00
22098;DHT22;11215;51.938;8.464;2022-10-28T10:18:31;21.80;66.20
22098;DHT22;11215;51.938;8.464;2022-10-28T10:21:00;21.90;65.70
22098;DHT22;11215;51.938;8.464;2022-10-28T10:23:35;21.90;66.50
22098;DHT22;11215;51.938;8.464;2022-10-28T10:26:07;22.00;66.30
22098;DHT22;11215;51.938;8.464;2022-10-28T10:28:48;22.10;65.90
22098;DHT22;11215;51.938;8.464;2022-10-28T10:31:24;22.10;65.40
22098;DHT22;11215;51.938;8.464;2022-10-28T10:33:53;22.20;66.00
22098;DHT22;11215;51.938;8.464;2022-10-28T10:36:24;22.30;65.90
22098;DHT22;11215;51.938;8.464;2022-10-28T10:39:00;22.30;65.80
22098;DHT22;11215;51.938;8.464;2022-10-28T10:41:38;22.40;65.10
22098;DHT22;11215;51.938;8.464;2022-10-28T10:49:19;22.50;65.50
22098;DHT22;11215;51.938;8.464;2022-10-28T10:51:55;22.60;65.50
22098;DHT22;11215;51.938;8.464;2022-10-28T10:54:23;22.60;64.10
22098;DHT22;11215;51.938;8.464;2022-10-28T10:56:49;22.70;65.10
22098;DHT22;11215;51.938;8.464;2022-10-28T10:59:26;22.70;65.20
22098;DHT22;11215;51.938;8.464;2022-10-28T11:01:54;22.70;64.20
22098;DHT22;11215;51.938;8.464;2022-10-28T11:04:21;22.80;64.90
22098;DHT22;11215;51.938;8.464;2022-10-28T11:06:55;22.80;64.70
22098;DHT22;11215;51.938;8.464;2022-10-28T11:09:36;22.80;64.00
22098;DHT22;11215;51.938;8.464;2022-10-28T11:12:26;22.80;63.10
22098;DHT22;11215;51.938;8.464;2022-10-28T11:14:54;22.90;63.60
22098;DHT22;11215;51.938;8.464;2022-10-28T11:17:32;22.90;64.40
22098;DHT22;11215;51.938;8.464;2022-10-28T11:19:59;22.90;64.30
22098;DHT22;11215;51.938;8.464;2022-10-28T11:22:59;23.00;64.60
22098;DHT22;11215;51.938;8.464;2022-10-28T11:25:36;23.10;63.70
22098;DHT22;11215;51.938;8.464;2022-10-28T11:30:51;23.10;64.60
22098;DHT22;11215;51.938;8.464;2022-10-28T11:33:25;23.30;63.50
22098;DHT22;11215;51.938;8.464;2022-10-28T11:36:16;23.30;63.50
22098;DHT22;11215;51.938;8.464;2022-10-28T11:41:30;23.40;62.70
22098;DHT22;11215;51.938;8.464;2022-10-28T11:43:59;23.50;63.80
22098;DHT22;11215;51.938;8.464;2022-10-28T12:01:02;23.70;63.00
22098;DHT22;11215;51.938;8.464;2022-10-28T12:12:02;23.90;61.60
22098;DHT22;11215;51.938;8.464;2022-10-28T12:14:46;23.90;61.40
22098;DHT22;11215;51.938;8.464;2022-10-28T12:19:56;23.90;61.50
22098;DHT22;11215;51.938;8.464;2022-10-28T12:25:22;24.00;60.80
22098;DHT22;11215;51.938;8.464;2022-10-28T12:27:51;24.00;61.50
22098;DHT22;11215;51.938;8.464;2022-10-28T12:30:25;24.00;62.60
22098;DHT22;11215;51.938;8.464;2022-10-28T12:32:56;24.00;61.70
22098;DHT22;11215;51.938;8.464;2022-10-28T12:35:37;24.00;61.90
22098;DHT22;11215;51.938;8.464;2022-10-28T12:40:42;24.10;62.60
22098;DHT22;11215;51.938;8.464;2022-10-28T12:43:28;24.20;62.90
22098;DHT22;11215;51.938;8.464;2022-10-28T12:45:57;24.10;61.40
22098;DHT22;11215;51.938;8.464;2022-10-28T12:48:40;24.20;61.80
22098;DHT22;11215;51.938;8.464;2022-10-28T12:51:13;24.20;61.00
22098;DHT22;11215;51.938;8.464;2022-10-28T12:53:52;24.20;60.60
22098;DHT22;11215;51.938;8.464;2022-10-28T12:56:35;24.20;60.20
22098;DHT22;11215;51.938;8.464;2022-10-28T13:01:42;24.30;61.50
22098;DHT22;11215;51.938;8.464;2022-10-28T13:04:10;24.30;61.20
22098;DHT22;11215;51.938;8.464;2022-10-28T13:06:56;24.40;61.30
22098;DHT22;11215;51.938;8.464;2022-10-28T13:26:41;24.60;60.20
22098;DHT22;11215;51.938;8.464;2022-10-28T13:29:18;24.60;61.80
22098;DHT22;11215;51.938;8.464;2022-10-28T13:31:45;24.60;59.70
22098;DHT22;11215;51.938;8.464;2022-10-28T13:34:14;24.60;59.90
22098;DHT22;11215;51.938;8.464;2022-10-28T13:36:46;24.60;59.60
22098;DHT22;11215;51.938;8.464;2022-10-28T13:44:59;24.60;58.50
22098;DHT22;11215;51.938;8.464;2022-10-28T13:47:35;24.60;59.30
22098;DHT22;11215;51.938;8.464;2022-10-28T13:57:48;24.60;58.20
22098;DHT22;11215;51.938;8.464;2022-10-28T14:02:59;24.70;59.50
22098;DHT22;11215;51.938;8.464;2022-10-28T14:08:00;24.70;59.30
22098;DHT22;11215;51.938;8.464;2022-10-28T14:10:32;24.70;58.50
22098;DHT22;11215;51.938;8.464;2022-10-28T14:13:01;24.70;59.60
22098;DHT22;11215;51.938;8.464;2022-10-28T14:15:31;24.70;58.80
22098;DHT22;11215;51.938;8.464;2022-10-28T14:18:04;24.60;59.10
22098;DHT22;11215;51.938;8.464;2022-10-28T14:20:42;24.70;58.90
22098;DHT22;11215;51.938;8.464;2022-10-28T14:42:06;24.60;59.40
22098;DHT22;11215;51.938;8.464;2022-10-28T14:44:57;24.60;58.80
22098;DHT22;11215;51.938;8.464;2022-10-28T14:47:49;24.60;58.90
22098;DHT22;11215;51.938;8.464;2022-10-28T14:50:22;24.60;59.60
22098;DHT22;11215;51.938;8.464;2022-10-28T14:52:50;24.60;59.50
22098;DHT22;11215;51.938;8.464;2022-10-28T14:55:26;24.50;59.40
22098;DHT22;11215;51.938;8.464;2022-10-28T15:03:45;24.40;59.50
22098;DHT22;11215;51.938;8.464;2022-10-28T15:06:39;24.40;59.70
22098;DHT22;11215;51.938;8.464;2022-10-28T15:09:09;24.40;59.60
22098;DHT22;11215;51.938;8.464;2022-10-28T15:11:41;24.40;59.80
22098;DHT22;11215;51.938;8.464;2022-10-28T15:14:26;24.30;60.40
22098;DHT22;11215;51.938;8.464;2022-10-28T15:16:53;24.30;59.60
22098;DHT22;11215;51.938;8.464;2022-10-28T15:19:22;24.20;59.90
22098;DHT22;11215;51.938;8.464;2022-10-28T15:22:01;24.20;60.00
22098;DHT22;11215;51.938;8.464;2022-10-28T15:24:26;24.20;60.20
22098;DHT22;11215;51.938;8.464;2022-10-28T15:26:53;24.10;60.20
22098;DHT22;11215;51.938;8.464;2022-10-28T15:29:20;24.10;60.50
22098;DHT22;11215;51.938;8.464;2022-10-28T15:32:26;24.00;60.20
22098;DHT22;11215;51.938;8.464;2022-10-28T15:34:51;24.00;60.40
22098;DHT22;11215;51.938;8.464;2022-10-28T15:37:21;23.90;60.20
22098;DHT22;11215;51.938;8.464;2022-10-28T15:39:51;23.90;60.20
22098;DHT22;11215;51.938;8.464;2022-10-28T15:42:43;23.90;60.40
22098;DHT22;11215;51.938;8.464;2022-10-28T15:45:22;23.80;60.20
22098;DHT22;11215;51.938;8.464;2022-10-28T15:47:48;23.70;60.30
22098;DHT22;11215;51.938;8.464;2022-10-28T15:52:47;23.70;60.30
22098;DHT22;11215;51.938;8.464;2022-10-28T15:57:51;23.50;60.00
22098;DHT22;11215;51.938;8.464;2022-10-28T16:03:23;23.40;59.80
22098;DHT22;11215;51.938;8.464;2022-10-28T16:05:48;23.40;59.70
22098;DHT22;11215;51.938;8.464;2022-10-28T16:11:13;23.30;59.90
22098;DHT22;11215;51.938;8.464;2022-10-28T16:13:46;23.30;59.70
22098;DHT22;11215;51.938;8.464;2022-10-28T16:16:14;23.20;59.60
22098;DHT22;11215;51.938;8.464;2022-10-28T16:18:54;23.20;59.70
22098;DHT22;11215;51.938;8.464;2022-10-28T16:21:24;23.10;59.60
22098;DHT22;11215;51.938;8.464;2022-10-28T16:23:52;23.10;59.60
22098;DHT22;11215;51.938;8.464;2022-10-28T16:26:21;23.10;59.90
22098;DHT22;11215;51.938;8.464;2022-10-28T16:28:47;23.10;59.80
22098;DHT22;11215;51.938;8.464;2022-10-28T16:31:14;23.00;59.70
22098;DHT22;11215;51.938;8.464;2022-10-28T16:33:41;23.00;59.80
22098;DHT22;11215;51.938;8.464;2022-10-28T16:36:07;23.00;59.70
22098;DHT22;11215;51.938;8.464;2022-10-28T16:38:33;23.00;59.90
22098;DHT22;11215;51.938;8.464;2022-10-28T16:40:59;23.00;59.80
22098;DHT22;11215;51.938;8.464;2022-10-28T16:43:27;22.90;59.50
22098;DHT22;11215;51.938;8.464;2022-10-28T16:45:54;22.90;59.60
22098;DHT22;11215;51.938;8.464;2022-10-28T16:48:23;22.90;59.50
22098;DHT22;11215;51.938;8.464;2022-10-28T16:50:54;22.90;59.70
22098;DHT22;11215;51.938;8.464;2022-10-28T16:53:21;22.90;59.80
22098;DHT22;11215;51.938;8.464;2022-10-28T16:55:47;22.90;59.70
22098;DHT22;11215;51.938;8.464;2022-10-28T16:58:13;22.80;59.50
22098;DHT22;11215;51.938;8.464;2022-10-28T17:00:40;22.80;59.50
22098;DHT22;11215;51.938;8.464;2022-10-28T17:03:06;22.80;59.50
22098;DHT22;11215;51.938;8.464;2022-10-28T17:05:34;22.80;59.40
22098;DHT22;11215;51.938;8.464;2022-10-28T17:08:00;22.70;59.40
22098;DHT22;11215;51.938;8.464;2022-10-28T17:10:26;22.70;59.50
22098;DHT22;11215;51.938;8.464;2022-10-28T17:12:52;22.60;59.40
22098;DHT22;11215;51.938;8.464;2022-10-28T17:15:18;22.60;59.40
22098;DHT22;11215;51.938;8.464;2022-10-28T17:17:48;22.60;59.40
22098;DHT22;11215;51.938;8.464;2022-10-28T17:20:14;22.50;59.50
22098;DHT22;11215;51.938;8.464;2022-10-28T17:22:39;22.50;59.60
22098;DHT22;11215;51.938;8.464;2022-10-28T17:25:06;22.50;59.50
22098;DHT22;11215;51.938;8.464;2022-10-28T17:27:32;22.50;59.50
22098;DHT22;11215;51.938;8.464;2022-10-28T17:29:57;22.50;59.60
22098;DHT22;11215;51.938;8.464;2022-10-28T17:32:23;22.40;59.50
22098;DHT22;11215;51.938;8.464;2022-10-28T17:34:49;22.50;59.60
22098;DHT22;11215;51.938;8.464;2022-10-28T17:37:14;22.40;59.70
22098;DHT22;11215;51.938;8.464;2022-10-28T17:39:40;22.40;59.60
22098;DHT22;11215;51.938;8.464;2022-10-28T17:42:07;22.50;59.70
22098;DHT22;11215;51.938;8.464;2022-10-28T17:44:33;22.50;59.60
22098;DHT22;11215;51.938;8.464;2022-10-28T17:46:58;22.50;59.70
22098;DHT22;11215;51.938;8.464;2022-10-28T17:49:24;22.50;59.50
22098;DHT22;11215;51.938;8.464;2022-10-28T17:51:50;22.50;59.50
22098;DHT22;11215;51.938;8.464;2022-10-28T17:54:16;22.50;59.50
22098;DHT22;11215;51.938;8.464;2022-10-28T17:56:42;22.50;59.50
22098;DHT22;11215;51.938;8.464;2022-10-28T17:59:07;22.50;59.50
22098;DHT22;11215;51.938;8.464;2022-10-28T18:01:34;22.50;59.40
22098;DHT22;11215;51.938;8.464;2022-10-28T18:04:00;22.50;60.00
22098;DHT22;11215;51.938;8.464;2022-10-28T18:06:27;22.50;59.40
22098;DHT22;11215;51.938;8.464;2022-10-28T18:08:53;22.50;59.40
22098;DHT22;11215;51.938;8.464;2022-10-28T18:11:19;22.50;59.40
22098;DHT22;11215;51.938;8.464;2022-10-28T18:13:46;22.50;59.40
22098;DHT22;11215;51.938;8.464;2022-10-28T18:16:19;22.50;59.30
22098;DHT22;11215;51.938;8.464;2022-10-28T18:18:45;22.40;59.30
22098;DHT22;11215;51.938;8.464;2022-10-28T18:21:11;22.40;59.40
22098;DHT22;11215;51.938;8.464;2022-10-28T18:23:38;22.40;59.40
22098;DHT22;11215;51.938;8.464;2022-10-28T18:26:15;22.40;59.40
22098;DHT22;11215;51.938;8.464;2022-10-28T18:28:42;22.40;59.30
22098;DHT22;11215;51.938;8.464;2022-10-28T18:31:16;22.30;59.40
22098;DHT22;11215;51.938;8.464;2022-10-28T18:33:42;22.30;59.40
22098;DHT22;11215;51.938;8.464;2022-10-28T18:36:18;22.20;59.40
22098;DHT22;11215;51.938;8.464;2022-10-28T18:38:44;22.20;59.50
22098;DHT22;11215;51.938;8.464;2022-10-28T18:41:17;22.10;59.60
22098;DHT22;11215;51.938;8.464;2022-10-28T18:43:43;22.10;59.70
22098;DHT22;11215;51.938;8.464;2022-10-28T18:46:10;22.00;59.70
22098;DHT22;11215;51.938;8.464;2022-10-28T18:48:36;22.00;59.80
22098;DHT22;11215;51.938;8.464;2022-10-28T18:51:07;21.90;59.90
22098;DHT22;11215;51.938;8.464;2022-10-28T18:53:35;21.80;60.00
22098;DHT22;11215;51.938;8.464;2022-10-28T18:56:02;21.70;60.00
22098;DHT22;11215;51.938;8.464;2022-10-28T18:58:29;21.70;60.10
22098;DHT22;11215;51.938;8.464;2022-10-28T19:03:34;21.50;60.60
22098;DHT22;11215;51.938;8.464;2022-10-28T19:06:11;21.50;60.50
22098;DHT22;11215;51.938;8.464;2022-10-28T19:08:38;21.40;60.90